sensor_id;sensor_type;location;lat;lon;timestamp;P1;durP1;ratioP1;P2;durP2;ratioP2
52386;SDS011;38317;53.084;6.960;2023-01-24T00:01:41;14.05;;;6.88;;
52386;SDS011;38317;53.084;6.960;2023-01-24T00:04:07;13.43;;;7.35;;
52386;SDS011;38317;53.084;6.960;2023-01-24T00:06:33;15.63;;;8.02;;
52386;SDS011;38317;53.084;6.960;2023-01-24T00:08:59;16.83;;;8.05;;
52386;SDS011;38317;53.084;6.960;2023-01-24T00:11:24;16.23;;;7.88;;
52386;SDS011;38317;53.084;6.960;2023-01-24T00:13:50;14.88;;;7.63;;
52386;SDS011;38317;53.084;6.960;2023-01-24T00:16:17;15.02;;;7.32;;
52386;SDS011;38317;53.084;6.960;2023-01-24T00:18:45;14.88;;;7.63;;
52386;SDS011;38317;53.084;6.960;2023-01-24T00:21:12;15.27;;;7.15;;
52386;SDS011;38317;53.084;6.960;2023-01-24T00:23:43;16.55;;;8.10;;
52386;SDS011;38317;53.084;6.960;2023-01-24T00:26:11;16.25;;;7.88;;
52386;SDS011;38317;53.084;6.960;2023-01-24T00:28:38;13.75;;;6.97;;
52386;SDS011;38317;53.084;6.960;2023-01-24T00:31:04;14.27;;;7.93;;
52386;SDS011;38317;53.084;6.960;2023-01-24T00:33:31;15.02;;;7.22;;
52386;SDS011;38317;53.084;6.960;2023-01-24T00:35:58;13.65;;;7.32;;
52386;SDS011;38317;53.084;6.960;2023-01-24T00:38:24;15.35;;;7.78;;
52386;SDS011;38317;53.084;6.960;2023-01-24T00:40:50;15.05;;;7.38;;
52386;SDS011;38317;53.084;6.960;2023-01-24T00:43:16;16.08;;;7.65;;
52386;SDS011;38317;53.084;6.960;2023-01-24T00:45:43;16.60;;;7.88;;
52386;SDS011;38317;53.084;6.960;2023-01-24T00:48:10;14.60;;;8.13;;
52386;SDS011;38317;53.084;6.960;2023-01-24T00:50:36;14.63;;;7.55;;
52386;SDS011;38317;53.084;6.960;2023-01-24T00:53:02;17.35;;;8.45;;
52386;SDS011;38317;53.084;6.960;2023-01-24T00:55:28;16.73;;;7.78;;
52386;SDS011;38317;53.084;6.960;2023-01-24T00:57:54;18.10;;;8.18;;
52386;SDS011;38317;53.084;6.960;2023-01-24T01:00:20;15.50;;;7.93;;
52386;SDS011;38317;53.084;6.960;2023-01-24T01:02:46;16.52;;;8.45;;
52386;SDS011;38317;53.084;6.960;2023-01-24T01:05:12;16.27;;;7.00;;
52386;SDS011;38317;53.084;6.960;2023-01-24T01:07:38;18.15;;;8.43;;
52386;SDS011;38317;53.084;6.960;2023-01-24T01:10:04;18.33;;;7.90;;
52386;SDS011;38317;53.084;6.960;2023-01-24T01:12:30;15.05;;;8.02;;
52386;SDS011;38317;53.084;6.960;2023-01-24T01:14:56;16.73;;;8.30;;
52386;SDS011;38317;53.084;6.960;2023-01-24T01:17:22;14.38;;;7.90;;
52386;SDS011;38317;53.084;6.960;2023-01-24T01:19:51;17.73;;;8.68;;
52386;SDS011;38317;53.084;6.960;2023-01-24T01:22:19;17.27;;;8.35;;
52386;SDS011;38317;53.084;6.960;2023-01-24T01:24:45;16.27;;;7.72;;
52386;SDS011;38317;53.084;6.960;2023-01-24T01:27:11;17.95;;;8.45;;
52386;SDS011;38317;53.084;6.960;2023-01-24T01:29:37;16.63;;;8.35;;
52386;SDS011;38317;53.084;6.960;2023-01-24T01:32:06;19.05;;;8.98;;
52386;SDS011;38317;53.084;6.960;2023-01-24T01:34:31;14.50;;;8.02;;
52386;SDS011;38317;53.084;6.960;2023-01-24T01:36:57;18.95;;;8.98;;
52386;SDS011;38317;53.084;6.960;2023-01-24T01:39:23;17.48;;;8.32;;
52386;SDS011;38317;53.084;6.960;2023-01-24T01:41:49;16.77;;;8.40;;
52386;SDS011;38317;53.084;6.960;2023-01-24T01:44:22;16.60;;;8.50;;
52386;SDS011;38317;53.084;6.960;2023-01-24T01:49:46;15.52;;;7.72;;
52386;SDS011;38317;53.084;6.960;2023-01-24T01:52:24;18.38;;;8.60;;
52386;SDS011;38317;53.084;6.960;2023-01-24T01:54:52;17.42;;;8.63;;
52386;SDS011;38317;53.084;6.960;2023-01-24T01:57:23;17.30;;;7.82;;
52386;SDS011;38317;53.084;6.960;2023-01-24T01:59:59;16.10;;;8.85;;
52386;SDS011;38317;53.084;6.960;2023-01-24T02:02:29;15.90;;;7.93;;
52386;SDS011;38317;53.084;6.960;2023-01-24T02:04:57;15.73;;;8.07;;
52386;SDS011;38317;53.084;6.960;2023-01-24T02:07:38;17.50;;;8.55;;
52386;SDS011;38317;53.084;6.960;2023-01-24T02:10:15;18.20;;;8.05;;
52386;SDS011;38317;53.084;6.960;2023-01-24T02:12:44;17.60;;;8.98;;
52386;SDS011;38317;53.084;6.960;2023-01-24T02:15:13;21.13;;;8.52;;
52386;SDS011;38317;53.084;6.960;2023-01-24T02:18:00;16.95;;;8.13;;
52386;SDS011;38317;53.084;6.960;2023-01-24T02:20:37;19.67;;;8.43;;
52386;SDS011;38317;53.084;6.960;2023-01-24T02:23:57;16.33;;;8.60;;
52386;SDS011;38317;53.084;6.960;2023-01-24T02:26:24;18.52;;;8.35;;
52386;SDS011;38317;53.084;6.960;2023-01-24T02:29:09;17.25;;;8.85;;
52386;SDS011;38317;53.084;6.960;2023-01-24T02:31:53;16.45;;;8.80;;
52386;SDS011;38317;53.084;6.960;2023-01-24T02:34:23;15.93;;;7.60;;
52386;SDS011;38317;53.084;6.960;2023-01-24T02:36:51;15.55;;;8.23;;
52386;SDS011;38317;53.084;6.960;2023-01-24T02:39:23;16.30;;;8.90;;
52386;SDS011;38317;53.084;6.960;2023-01-24T02:42:05;20.05;;;9.00;;
52386;SDS011;38317;53.084;6.960;2023-01-24T02:44:46;22.45;;;8.32;;
52386;SDS011;38317;53.084;6.960;2023-01-24T02:47:34;18.13;;;8.77;;
52386;SDS011;38317;53.084;6.960;2023-01-24T02:50:02;16.60;;;8.45;;
52386;SDS011;38317;53.084;6.960;2023-01-24T02:52:28;17.13;;;8.82;;
52386;SDS011;38317;53.084;6.960;2023-01-24T02:55:13;15.98;;;8.05;;
52386;SDS011;38317;53.084;6.960;2023-01-24T02:57:39;15.73;;;7.50;;
52386;SDS011;38317;53.084;6.960;2023-01-24T03:00:23;15.43;;;8.00;;
52386;SDS011;38317;53.084;6.960;2023-01-24T03:02:49;17.40;;;8.50;;
52386;SDS011;38317;53.084;6.960;2023-01-24T03:05:15;16.67;;;8.45;;
52386;SDS011;38317;53.084;6.960;2023-01-24T03:07:41;17.63;;;8.75;;
52386;SDS011;38317;53.084;6.960;2023-01-24T03:10:10;16.52;;;8.02;;
52386;SDS011;38317;53.084;6.960;2023-01-24T03:12:36;18.90;;;8.77;;
52386;SDS011;38317;53.084;6.960;2023-01-24T03:15:21;16.67;;;8.27;;
52386;SDS011;38317;53.084;6.960;2023-01-24T03:18:05;15.38;;;7.63;;
52386;SDS011;38317;53.084;6.960;2023-01-24T03:20:50;14.40;;;7.47;;
52386;SDS011;38317;53.084;6.960;2023-01-24T03:23:33;15.77;;;8.95;;
52386;SDS011;38317;53.084;6.960;2023-01-24T03:26:18;15.57;;;8.50;;
52386;SDS011;38317;53.084;6.960;2023-01-24T03:29:03;15.95;;;7.75;;
52386;SDS011;38317;53.084;6.960;2023-01-24T03:31:48;16.63;;;8.43;;
52386;SDS011;38317;53.084;6.960;2023-01-24T03:34:32;18.15;;;8.13;;
52386;SDS011;38317;53.084;6.960;2023-01-24T03:37:01;14.45;;;7.13;;
52386;SDS011;38317;53.084;6.960;2023-01-24T03:39:27;14.65;;;7.43;;
52386;SDS011;38317;53.084;6.960;2023-01-24T03:42:11;13.60;;;6.78;;
52386;SDS011;38317;53.084;6.960;2023-01-24T03:44:37;13.25;;;6.82;;
52386;SDS011;38317;53.084;6.960;2023-01-24T03:47:03;14.38;;;6.95;;
52386;SDS011;38317;53.084;6.960;2023-01-24T03:49:29;15.35;;;7.57;;
52386;SDS011;38317;53.084;6.960;2023-01-24T03:52:13;14.38;;;7.60;;
52386;SDS011;38317;53.084;6.960;2023-01-24T03:55:00;14.77;;;7.28;;
52386;SDS011;38317;53.084;6.960;2023-01-24T03:57:26;13.45;;;6.35;;
52386;SDS011;38317;53.084;6.960;2023-01-24T03:59:53;12.90;;;6.78;;
52386;SDS011;38317;53.084;6.960;2023-01-24T04:02:19;15.07;;;7.03;;
52386;SDS011;38317;53.084;6.960;2023-01-24T04:04:45;14.93;;;7.20;;
52386;SDS011;38317;53.084;6.960;2023-01-24T04:07:30;14.20;;;7.20;;
52386;SDS011;38317;53.084;6.960;2023-01-24T04:09:56;13.05;;;6.22;;
52386;SDS011;38317;53.084;6.960;2023-01-24T04:12:24;12.88;;;6.57;;
52386;SDS011;38317;53.084;6.960;2023-01-24T04:14:50;13.63;;;6.53;;
52386;SDS011;38317;53.084;6.960;2023-01-24T04:17:16;14.93;;;6.72;;
52386;SDS011;38317;53.084;6.960;2023-01-24T04:19:42;14.00;;;6.35;;
52386;SDS011;38317;53.084;6.960;2023-01-24T04:22:07;15.13;;;7.07;;
52386;SDS011;38317;53.084;6.960;2023-01-24T04:24:33;16.45;;;7.25;;
52386;SDS011;38317;53.084;6.960;2023-01-24T04:26:59;13.60;;;7.50;;
52386;SDS011;38317;53.084;6.960;2023-01-24T04:29:25;14.05;;;6.97;;
52386;SDS011;38317;53.084;6.960;2023-01-24T04:31:50;13.90;;;7.15;;
52386;SDS011;38317;53.084;6.960;2023-01-24T04:34:16;13.07;;;7.28;;
52386;SDS011;38317;53.084;6.960;2023-01-24T04:36:42;14.25;;;7.05;;
52386;SDS011;38317;53.084;6.960;2023-01-24T04:39:08;15.10;;;7.03;;
52386;SDS011;38317;53.084;6.960;2023-01-24T04:41:33;15.25;;;6.95;;
52386;SDS011;38317;53.084;6.960;2023-01-24T04:43:59;17.08;;;8.05;;
52386;SDS011;38317;53.084;6.960;2023-01-24T04:46:26;13.57;;;7.22;;
52386;SDS011;38317;53.084;6.960;2023-01-24T04:48:53;12.60;;;7.13;;
52386;SDS011;38317;53.084;6.960;2023-01-24T04:51:19;13.07;;;6.80;;
52386;SDS011;38317;53.084;6.960;2023-01-24T04:53:44;16.13;;;7.63;;
52386;SDS011;38317;53.084;6.960;2023-01-24T04:56:10;15.63;;;7.55;;
52386;SDS011;38317;53.084;6.960;2023-01-24T04:58:36;16.08;;;6.85;;
52386;SDS011;38317;53.084;6.960;2023-01-24T05:01:02;14.60;;;7.03;;
52386;SDS011;38317;53.084;6.960;2023-01-24T05:03:28;12.15;;;6.05;;
52386;SDS011;38317;53.084;6.960;2023-01-24T05:05:54;10.75;;;5.03;;
52386;SDS011;38317;53.084;6.960;2023-01-24T05:08:20;10.70;;;5.65;;
52386;SDS011;38317;53.084;6.960;2023-01-24T05:10:46;11.30;;;5.55;;
52386;SDS011;38317;53.084;6.960;2023-01-24T05:13:13;10.52;;;5.70;;
52386;SDS011;38317;53.084;6.960;2023-01-24T05:15:45;12.60;;;5.63;;
52386;SDS011;38317;53.084;6.960;2023-01-24T05:18:14;17.10;;;5.93;;
52386;SDS011;38317;53.084;6.960;2023-01-24T05:20:40;10.85;;;5.35;;
52386;SDS011;38317;53.084;6.960;2023-01-24T05:23:06;12.63;;;5.70;;
52386;SDS011;38317;53.084;6.960;2023-01-24T05:25:32;14.10;;;6.28;;
52386;SDS011;38317;53.084;6.960;2023-01-24T05:27:57;11.13;;;5.45;;
52386;SDS011;38317;53.084;6.960;2023-01-24T05:30:23;10.45;;;5.50;;
52386;SDS011;38317;53.084;6.960;2023-01-24T05:32:49;11.52;;;5.68;;
52386;SDS011;38317;53.084;6.960;2023-01-24T05:35:14;11.63;;;5.63;;
52386;SDS011;38317;53.084;6.960;2023-01-24T05:37:40;12.25;;;5.53;;
52386;SDS011;38317;53.084;6.960;2023-01-24T05:40:07;10.82;;;5.75;;
52386;SDS011;38317;53.084;6.960;2023-01-24T05:42:34;10.35;;;5.03;;
52386;SDS011;38317;53.084;6.960;2023-01-24T05:44:59;11.85;;;5.50;;
52386;SDS011;38317;53.084;6.960;2023-01-24T05:47:25;11.50;;;6.03;;
52386;SDS011;38317;53.084;6.960;2023-01-24T05:49:51;12.48;;;6.35;;
52386;SDS011;38317;53.084;6.960;2023-01-24T05:52:17;12.48;;;6.05;;
52386;SDS011;38317;53.084;6.960;2023-01-24T05:54:46;10.45;;;4.82;;
52386;SDS011;38317;53.084;6.960;2023-01-24T05:57:16;13.40;;;6.22;;
52386;SDS011;38317;53.084;6.960;2023-01-24T05:59:42;10.20;;;4.90;;
52386;SDS011;38317;53.084;6.960;2023-01-24T06:02:08;10.15;;;5.25;;
52386;SDS011;38317;53.084;6.960;2023-01-24T06:04:34;13.10;;;6.10;;
52386;SDS011;38317;53.084;6.960;2023-01-24T06:06:59;10.48;;;5.07;;
52386;SDS011;38317;53.084;6.960;2023-01-24T06:09:25;9.88;;;5.03;;
52386;SDS011;38317;53.084;6.960;2023-01-24T06:11:51;11.63;;;5.00;;
52386;SDS011;38317;53.084;6.960;2023-01-24T06:14:17;11.07;;;5.72;;
52386;SDS011;38317;53.084;6.960;2023-01-24T06:16:43;11.20;;;5.25;;
52386;SDS011;38317;53.084;6.960;2023-01-24T06:19:10;10.48;;;5.00;;
52386;SDS011;38317;53.084;6.960;2023-01-24T06:21:47;11.45;;;5.38;;
52386;SDS011;38317;53.084;6.960;2023-01-24T06:26:45;10.82;;;5.78;;
52386;SDS011;38317;53.084;6.960;2023-01-24T06:29:12;10.32;;;5.75;;
52386;SDS011;38317;53.084;6.960;2023-01-24T06:40:03;11.43;;;5.45;;
52386;SDS011;38317;53.084;6.960;2023-01-24T06:42:33;11.57;;;5.93;;
52386;SDS011;38317;53.084;6.960;2023-01-24T06:44:59;11.07;;;5.38;;
52386;SDS011;38317;53.084;6.960;2023-01-24T06:47:25;13.32;;;6.60;;
52386;SDS011;38317;53.084;6.960;2023-01-24T06:49:53;14.88;;;6.72;;
52386;SDS011;38317;53.084;6.960;2023-01-24T06:52:19;12.48;;;6.30;;
52386;SDS011;38317;53.084;6.960;2023-01-24T06:54:45;13.77;;;6.47;;
52386;SDS011;38317;53.084;6.960;2023-01-24T06:57:11;12.35;;;6.22;;
52386;SDS011;38317;53.084;6.960;2023-01-24T06:59:37;13.68;;;7.38;;
52386;SDS011;38317;53.084;6.960;2023-01-24T07:02:03;13.65;;;7.45;;
52386;SDS011;38317;53.084;6.960;2023-01-24T07:04:29;14.15;;;7.15;;
52386;SDS011;38317;53.084;6.960;2023-01-24T07:06:54;14.40;;;7.25;;
52386;SDS011;38317;53.084;6.960;2023-01-24T07:09:20;13.95;;;6.65;;
52386;SDS011;38317;53.084;6.960;2023-01-24T07:11:47;12.45;;;6.50;;
52386;SDS011;38317;53.084;6.960;2023-01-24T07:14:17;12.75;;;6.45;;
52386;SDS011;38317;53.084;6.960;2023-01-24T07:16:43;12.95;;;6.28;;
52386;SDS011;38317;53.084;6.960;2023-01-24T07:19:13;10.95;;;5.93;;
52386;SDS011;38317;53.084;6.960;2023-01-24T07:21:40;15.18;;;6.45;;
52386;SDS011;38317;53.084;6.960;2023-01-24T07:24:09;11.10;;;6.63;;
52386;SDS011;38317;53.084;6.960;2023-01-24T07:26:39;12.32;;;6.38;;
52386;SDS011;38317;53.084;6.960;2023-01-24T07:29:05;12.15;;;6.97;;
52386;SDS011;38317;53.084;6.960;2023-01-24T07:31:30;11.95;;;7.10;;
52386;SDS011;38317;53.084;6.960;2023-01-24T07:33:57;14.63;;;7.70;;
52386;SDS011;38317;53.084;6.960;2023-01-24T07:36:23;14.75;;;8.02;;
52386;SDS011;38317;53.084;6.960;2023-01-24T07:38:48;13.70;;;7.85;;
52386;SDS011;38317;53.084;6.960;2023-01-24T07:41:18;14.48;;;8.30;;
52386;SDS011;38317;53.084;6.960;2023-01-24T07:43:44;14.10;;;8.05;;
52386;SDS011;38317;53.084;6.960;2023-01-24T07:46:10;12.90;;;7.45;;
52386;SDS011;38317;53.084;6.960;2023-01-24T07:48:35;16.02;;;7.82;;
52386;SDS011;38317;53.084;6.960;2023-01-24T07:51:01;15.02;;;8.23;;
52386;SDS011;38317;53.084;6.960;2023-01-24T07:53:27;13.60;;;7.50;;
52386;SDS011;38317;53.084;6.960;2023-01-24T07:55:53;17.55;;;8.15;;
52386;SDS011;38317;53.084;6.960;2023-01-24T07:58:19;15.80;;;8.43;;
52386;SDS011;38317;53.084;6.960;2023-01-24T08:00:44;14.02;;;8.35;;
52386;SDS011;38317;53.084;6.960;2023-01-24T08:03:10;14.48;;;8.25;;
52386;SDS011;38317;53.084;6.960;2023-01-24T08:05:36;14.57;;;8.13;;
52386;SDS011;38317;53.084;6.960;2023-01-24T08:08:02;14.68;;;8.18;;
52386;SDS011;38317;53.084;6.960;2023-01-24T08:10:28;13.98;;;7.95;;
52386;SDS011;38317;53.084;6.960;2023-01-24T08:12:54;12.55;;;7.43;;
52386;SDS011;38317;53.084;6.960;2023-01-24T08:15:21;14.15;;;8.25;;
52386;SDS011;38317;53.084;6.960;2023-01-24T08:17:47;14.98;;;8.27;;
52386;SDS011;38317;53.084;6.960;2023-01-24T08:20:13;14.80;;;7.72;;
52386;SDS011;38317;53.084;6.960;2023-01-24T08:22:40;18.90;;;8.50;;
52386;SDS011;38317;53.084;6.960;2023-01-24T08:25:06;14.57;;;8.23;;
52386;SDS011;38317;53.084;6.960;2023-01-24T08:27:33;14.60;;;7.47;;
52386;SDS011;38317;53.084;6.960;2023-01-24T08:29:59;13.63;;;7.57;;
52386;SDS011;38317;53.084;6.960;2023-01-24T08:32:25;13.68;;;6.90;;
52386;SDS011;38317;53.084;6.960;2023-01-24T08:34:51;12.48;;;6.47;;
52386;SDS011;38317;53.084;6.960;2023-01-24T08:37:16;11.65;;;6.15;;
52386;SDS011;38317;53.084;6.960;2023-01-24T08:39:42;12.77;;;6.65;;
52386;SDS011;38317;53.084;6.960;2023-01-24T08:42:09;12.18;;;5.97;;
52386;SDS011;38317;53.084;6.960;2023-01-24T08:44:35;12.27;;;6.13;;
52386;SDS011;38317;53.084;6.960;2023-01-24T08:47:01;11.52;;;5.68;;
52386;SDS011;38317;53.084;6.960;2023-01-24T08:49:26;12.57;;;6.18;;
52386;SDS011;38317;53.084;6.960;2023-01-24T08:51:52;13.43;;;6.90;;
52386;SDS011;38317;53.084;6.960;2023-01-24T08:54:24;11.25;;;6.35;;
52386;SDS011;38317;53.084;6.960;2023-01-24T08:56:54;12.02;;;6.30;;
52386;SDS011;38317;53.084;6.960;2023-01-24T08:59:20;13.63;;;7.63;;
52386;SDS011;38317;53.084;6.960;2023-01-24T09:01:46;14.90;;;7.43;;
52386;SDS011;38317;53.084;6.960;2023-01-24T09:04:12;12.15;;;6.75;;
52386;SDS011;38317;53.084;6.960;2023-01-24T09:06:37;13.13;;;7.03;;
52386;SDS011;38317;53.084;6.960;2023-01-24T09:09:03;12.30;;;6.07;;
52386;SDS011;38317;53.084;6.960;2023-01-24T09:11:29;12.52;;;6.78;;
52386;SDS011;38317;53.084;6.960;2023-01-24T09:13:56;12.50;;;6.35;;
52386;SDS011;38317;53.084;6.960;2023-01-24T09:16:22;12.32;;;6.32;;
52386;SDS011;38317;53.084;6.960;2023-01-24T09:18:48;12.85;;;6.35;;
52386;SDS011;38317;53.084;6.960;2023-01-24T09:21:17;11.75;;;6.28;;
52386;SDS011;38317;53.084;6.960;2023-01-24T09:23:43;13.63;;;6.63;;
52386;SDS011;38317;53.084;6.960;2023-01-24T09:26:09;12.27;;;5.97;;
52386;SDS011;38317;53.084;6.960;2023-01-24T09:28:35;11.25;;;5.32;;
52386;SDS011;38317;53.084;6.960;2023-01-24T09:31:01;12.57;;;5.85;;
52386;SDS011;38317;53.084;6.960;2023-01-24T09:33:27;11.65;;;5.90;;
52386;SDS011;38317;53.084;6.960;2023-01-24T09:35:54;13.45;;;5.60;;
52386;SDS011;38317;53.084;6.960;2023-01-24T09:38:22;10.88;;;5.22;;
52386;SDS011;38317;53.084;6.960;2023-01-24T09:40:54;9.77;;;4.57;;
52386;SDS011;38317;53.084;6.960;2023-01-24T09:43:45;12.50;;;5.10;;
52386;SDS011;38317;53.084;6.960;2023-01-24T09:48:59;10.27;;;4.78;;
52386;SDS011;38317;53.084;6.960;2023-01-24T09:51:34;10.88;;;5.03;;
52386;SDS011;38317;53.084;6.960;2023-01-24T09:54:05;11.73;;;5.25;;
52386;SDS011;38317;53.084;6.960;2023-01-24T09:56:35;10.20;;;4.88;;
52386;SDS011;38317;53.084;6.960;2023-01-24T09:59:12;12.32;;;5.93;;
52386;SDS011;38317;53.084;6.960;2023-01-24T10:01:38;9.90;;;5.10;;
52386;SDS011;38317;53.084;6.960;2023-01-24T10:09:32;10.50;;;5.28;;
52386;SDS011;38317;53.084;6.960;2023-01-24T10:12:51;12.20;;;5.60;;
52386;SDS011;38317;53.084;6.960;2023-01-24T10:15:28;15.30;;;6.00;;
52386;SDS011;38317;53.084;6.960;2023-01-24T10:23:56;12.07;;;5.63;;
52386;SDS011;38317;53.084;6.960;2023-01-24T10:29:11;12.25;;;5.85;;
52386;SDS011;38317;53.084;6.960;2023-01-24T10:31:39;13.57;;;6.00;;
52386;SDS011;38317;53.084;6.960;2023-01-24T10:36:53;12.35;;;5.95;;
52386;SDS011;38317;53.084;6.960;2023-01-24T10:39:23;10.10;;;5.20;;
52386;SDS011;38317;53.084;6.960;2023-01-24T10:41:48;13.73;;;5.45;;
52386;SDS011;38317;53.084;6.960;2023-01-24T10:44:19;11.43;;;5.72;;
52386;SDS011;38317;53.084;6.960;2023-01-24T10:49:37;14.23;;;6.43;;
52386;SDS011;38317;53.084;6.960;2023-01-24T10:52:20;11.90;;;6.10;;
52386;SDS011;38317;53.084;6.960;2023-01-24T10:54:51;12.82;;;6.30;;
52386;SDS011;38317;53.084;6.960;2023-01-24T10:57:20;11.55;;;5.90;;
52386;SDS011;38317;53.084;6.960;2023-01-24T11:03:00;12.07;;;5.63;;
52386;SDS011;38317;53.084;6.960;2023-01-24T11:05:51;11.60;;;5.78;;
52386;SDS011;38317;53.084;6.960;2023-01-24T11:08:36;12.98;;;6.75;;
52386;SDS011;38317;53.084;6.960;2023-01-24T11:11:03;12.88;;;6.63;;
52386;SDS011;38317;53.084;6.960;2023-01-24T11:13:45;13.90;;;7.38;;
52386;SDS011;38317;53.084;6.960;2023-01-24T11:19:02;13.98;;;6.93;;
52386;SDS011;38317;53.084;6.960;2023-01-24T11:21:30;13.48;;;6.85;;
52386;SDS011;38317;53.084;6.960;2023-01-24T11:26:32;15.23;;;7.65;;
52386;SDS011;38317;53.084;6.960;2023-01-24T11:29:17;13.68;;;7.65;;
52386;SDS011;38317;53.084;6.960;2023-01-24T11:31:56;12.68;;;6.80;;
52386;SDS011;38317;53.084;6.960;2023-01-24T11:35:29;13.90;;;7.15;;
52386;SDS011;38317;53.084;6.960;2023-01-24T11:51:05;15.48;;;6.80;;
52386;SDS011;38317;53.084;6.960;2023-01-24T11:59:14;15.48;;;7.70;;
52386;SDS011;38317;53.084;6.960;2023-01-24T12:02:10;11.60;;;6.85;;
52386;SDS011;38317;53.084;6.960;2023-01-24T12:16:26;13.70;;;7.25;;
52386;SDS011;38317;53.084;6.960;2023-01-24T12:21:31;13.63;;;6.93;;
52386;SDS011;38317;53.084;6.960;2023-01-24T12:24:02;13.90;;;7.60;;
52386;SDS011;38317;53.084;6.960;2023-01-24T12:26:43;14.63;;;8.00;;
52386;SDS011;38317;53.084;6.960;2023-01-24T12:31:58;14.25;;;7.38;;
52386;SDS011;38317;53.084;6.960;2023-01-24T12:34:34;14.52;;;7.90;;
52386;SDS011;38317;53.084;6.960;2023-01-24T12:42:46;14.25;;;7.07;;
52386;SDS011;38317;53.084;6.960;2023-01-24T12:45:40;14.82;;;8.10;;
52386;SDS011;38317;53.084;6.960;2023-01-24T12:56:55;14.30;;;6.60;;
52386;SDS011;38317;53.084;6.960;2023-01-24T12:59:25;13.98;;;7.32;;
52386;SDS011;38317;53.084;6.960;2023-01-24T13:10:17;14.25;;;7.30;;
52386;SDS011;38317;53.084;6.960;2023-01-24T13:13:08;13.55;;;6.85;;
52386;SDS011;38317;53.084;6.960;2023-01-24T13:31:52;14.15;;;7.35;;
52386;SDS011;38317;53.084;6.960;2023-01-24T13:34:34;14.32;;;7.15;;
52386;SDS011;38317;53.084;6.960;2023-01-24T13:37:02;14.40;;;7.65;;
52386;SDS011;38317;53.084;6.960;2023-01-24T13:44:44;13.77;;;7.05;;
52386;SDS011;38317;53.084;6.960;2023-01-24T13:49:46;15.07;;;7.70;;
52386;SDS011;38317;53.084;6.960;2023-01-24T13:52:35;15.65;;;6.75;;
52386;SDS011;38317;53.084;6.960;2023-01-24T13:57:49;13.68;;;7.47;;
52386;SDS011;38317;53.084;6.960;2023-01-24T14:00:45;14.60;;;7.80;;
52386;SDS011;38317;53.084;6.960;2023-01-24T14:03:21;14.25;;;7.45;;
52386;SDS011;38317;53.084;6.960;2023-01-24T14:13:42;14.38;;;7.65;;
52386;SDS011;38317;53.084;6.960;2023-01-24T14:16:12;14.35;;;8.25;;
52386;SDS011;38317;53.084;6.960;2023-01-24T14:22:05;14.65;;;8.50;;
52386;SDS011;38317;53.084;6.960;2023-01-24T14:27:46;17.95;;;9.48;;
52386;SDS011;38317;53.084;6.960;2023-01-24T14:35:14;12.40;;;7.00;;
52386;SDS011;38317;53.084;6.960;2023-01-24T14:37:42;14.27;;;8.63;;
52386;SDS011;38317;53.084;6.960;2023-01-24T14:40:09;14.95;;;8.48;;
52386;SDS011;38317;53.084;6.960;2023-01-24T14:42:46;15.63;;;8.55;;
52386;SDS011;38317;53.084;6.960;2023-01-24T14:45:14;14.60;;;7.78;;
52386;SDS011;38317;53.084;6.960;2023-01-24T14:47:45;14.48;;;7.68;;
52386;SDS011;38317;53.084;6.960;2023-01-24T14:50:18;16.13;;;6.88;;
52386;SDS011;38317;53.084;6.960;2023-01-24T14:52:45;13.55;;;7.40;;
52386;SDS011;38317;53.084;6.960;2023-01-24T14:57:45;12.48;;;6.63;;
52386;SDS011;38317;53.084;6.960;2023-01-24T15:02:57;15.38;;;7.78;;
52386;SDS011;38317;53.084;6.960;2023-01-24T15:05:26;11.13;;;6.28;;
52386;SDS011;38317;53.084;6.960;2023-01-24T15:07:57;11.75;;;6.85;;
52386;SDS011;38317;53.084;6.960;2023-01-24T15:10:26;12.70;;;6.32;;
52386;SDS011;38317;53.084;6.960;2023-01-24T15:13:00;12.52;;;6.35;;
52386;SDS011;38317;53.084;6.960;2023-01-24T15:15:28;11.77;;;6.25;;
52386;SDS011;38317;53.084;6.960;2023-01-24T15:18:04;12.93;;;6.55;;
52386;SDS011;38317;53.084;6.960;2023-01-24T15:20:32;13.65;;;6.70;;
52386;SDS011;38317;53.084;6.960;2023-01-24T15:22:59;13.68;;;6.78;;
52386;SDS011;38317;53.084;6.960;2023-01-24T15:25:29;11.00;;;5.72;;
52386;SDS011;38317;53.084;6.960;2023-01-24T15:27:56;12.00;;;5.90;;
52386;SDS011;38317;53.084;6.960;2023-01-24T15:30:32;11.50;;;6.40;;
52386;SDS011;38317;53.084;6.960;2023-01-24T15:32:59;11.52;;;5.20;;
52386;SDS011;38317;53.084;6.960;2023-01-24T15:35:36;13.32;;;6.57;;
52386;SDS011;38317;53.084;6.960;2023-01-24T15:40:55;12.77;;;6.45;;
52386;SDS011;38317;53.084;6.960;2023-01-24T15:44:22;14.32;;;6.90;;
52386;SDS011;38317;53.084;6.960;2023-01-24T15:46:36;14.10;;;6.95;;
52386;SDS011;38317;53.084;6.960;2023-01-24T15:54:35;12.63;;;6.90;;
52386;SDS011;38317;53.084;6.960;2023-01-24T16:02:38;13.52;;;7.15;;
52386;SDS011;38317;53.084;6.960;2023-01-24T16:05:14;13.43;;;6.72;;
52386;SDS011;38317;53.084;6.960;2023-01-24T16:07:41;13.00;;;6.72;;
52386;SDS011;38317;53.084;6.960;2023-01-24T16:10:08;12.48;;;6.38;;
52386;SDS011;38317;53.084;6.960;2023-01-24T16:12:37;12.27;;;6.38;;
52386;SDS011;38317;53.084;6.960;2023-01-24T16:15:03;12.20;;;7.00;;
52386;SDS011;38317;53.084;6.960;2023-01-24T16:17:30;13.45;;;6.63;;
52386;SDS011;38317;53.084;6.960;2023-01-24T16:19:55;14.55;;;7.20;;
52386;SDS011;38317;53.084;6.960;2023-01-24T16:22:21;15.23;;;7.30;;
52386;SDS011;38317;53.084;6.960;2023-01-24T16:24:48;14.75;;;7.40;;
52386;SDS011;38317;53.084;6.960;2023-01-24T16:27:14;15.50;;;7.15;;
52386;SDS011;38317;53.084;6.960;2023-01-24T16:29:40;17.17;;;7.45;;
52386;SDS011;38317;53.084;6.960;2023-01-24T16:32:20;14.60;;;6.78;;
52386;SDS011;38317;53.084;6.960;2023-01-24T16:34:53;12.77;;;6.88;;
52386;SDS011;38317;53.084;6.960;2023-01-24T16:37:19;13.60;;;6.57;;
52386;SDS011;38317;53.084;6.960;2023-01-24T16:39:44;14.52;;;7.13;;
52386;SDS011;38317;53.084;6.960;2023-01-24T16:42:12;12.60;;;6.53;;
52386;SDS011;38317;53.084;6.960;2023-01-24T16:44:40;11.60;;;6.47;;
52386;SDS011;38317;53.084;6.960;2023-01-24T16:47:06;13.38;;;6.88;;
52386;SDS011;38317;53.084;6.960;2023-01-24T16:49:32;14.27;;;7.38;;
52386;SDS011;38317;53.084;6.960;2023-01-24T16:51:58;12.50;;;6.47;;
52386;SDS011;38317;53.084;6.960;2023-01-24T16:54:24;13.68;;;7.38;;
52386;SDS011;38317;53.084;6.960;2023-01-24T16:56:50;12.18;;;6.45;;
52386;SDS011;38317;53.084;6.960;2023-01-24T16:59:16;15.77;;;6.85;;
52386;SDS011;38317;53.084;6.960;2023-01-24T17:01:41;11.80;;;6.63;;
52386;SDS011;38317;53.084;6.960;2023-01-24T17:04:07;12.77;;;6.95;;
52386;SDS011;38317;53.084;6.960;2023-01-24T17:06:33;11.93;;;6.32;;
52386;SDS011;38317;53.084;6.960;2023-01-24T17:08:59;12.63;;;6.20;;
52386;SDS011;38317;53.084;6.960;2023-01-24T17:11:25;13.40;;;6.53;;
52386;SDS011;38317;53.084;6.960;2023-01-24T17:13:51;13.57;;;6.28;;
52386;SDS011;38317;53.084;6.960;2023-01-24T17:16:18;12.18;;;6.18;;
52386;SDS011;38317;53.084;6.960;2023-01-24T17:18:43;13.05;;;5.97;;
52386;SDS011;38317;53.084;6.960;2023-01-24T17:21:10;11.15;;;5.65;;
52386;SDS011;38317;53.084;6.960;2023-01-24T17:23:39;12.10;;;6.10;;
52386;SDS011;38317;53.084;6.960;2023-01-24T17:28:40;11.27;;;5.72;;
52386;SDS011;38317;53.084;6.960;2023-01-24T17:31:11;11.98;;;5.78;;
52386;SDS011;38317;53.084;6.960;2023-01-24T17:33:38;11.50;;;6.18;;
52386;SDS011;38317;53.084;6.960;2023-01-24T17:36:05;13.10;;;6.20;;
52386;SDS011;38317;53.084;6.960;2023-01-24T17:38:32;11.10;;;5.97;;
52386;SDS011;38317;53.084;6.960;2023-01-24T17:40:58;10.85;;;5.40;;
52386;SDS011;38317;53.084;6.960;2023-01-24T17:43:24;11.63;;;5.95;;